Time;durP1;ratioP1;P1;durP2;ratioP2;P2;SDS_P1;SDS_P2;PMS_P1;PMS_P2;Temp;Humidity;BMP_temperature;BMP_pressure;BME280_temperature;BME280_humidity;BME280_pressure;Samples;Min_cycle;Max_cycle;Signal;HPM_P1;HPM_P2
2023/04/04 00:02:18;;;;;;;;;;;;;;;16.22;43.60;102677.84;7257440;19;153815;-56
2023/04/04 00:04:45;;;;;;;;;;;;;;;16.21;43.83;102672.53;7259874;19;153728;-56
2023/04/04 00:07:15;;;;;;;;;;;;;;;16.21;43.45;102673.38;7259841;19;152649;-56
2023/04/04 00:09:42;;;;;;;;;;;;;;;16.19;43.62;102667.19;7257012;19;155280;-56
2023/04/04 00:12:09;;;;;;;;;;;;;;;16.20;43.51;102674.47;7258633;19;152877;-56
2023/04/04 00:14:35;;;;;;;;;;;;;;;16.22;43.43;102663.06;7258849;19;153932;-56
2023/04/04 00:17:02;;;;;;;;;;;;;;;16.19;43.39;102656.03;7254718;19;153345;-55
2023/04/04 00:19:29;;;;;;;;;;;;;;;16.17;43.56;102660.97;7261100;19;152969;-55
2023/04/04 00:21:56;;;;;;;;;;;;;;;16.21;43.53;102650.22;7253805;19;153770;-55
2023/04/04 00:24:23;;;;;;;;;;;;;;;16.21;43.43;102648.28;7255777;19;153005;-55
2023/04/04 00:26:51;;;;;;;;;;;;;;;16.20;43.80;102651.31;7254513;19;154351;-55
2023/04/04 00:29:18;;;;;;;;;;;;;;;16.16;43.87;102636.13;7255202;19;152885;-56
2023/04/04 00:31:45;;;;;;;;;;;;;;;16.20;43.71;102640.16;7254525;19;153105;-55
2023/04/04 00:34:12;;;;;;;;;;;;;;;16.19;43.71;102636.50;7253025;19;154033;-56
2023/04/04 00:36:39;;;;;;;;;;;;;;;16.20;43.74;102638.22;7249489;19;153997;-55
2023/04/04 00:39:06;;;;;;;;;;;;;;;16.20;43.62;102632.63;7258905;19;153664;-55
2023/04/04 00:41:33;;;;;;;;;;;;;;;16.19;43.59;102642.09;7261732;19;154485;-56
2023/04/04 00:44:00;;;;;;;;;;;;;;;16.16;43.69;102634.22;7256060;19;154548;-55
2023/04/04 00:46:28;;;;;;;;;;;;;;;16.17;43.37;102638.66;7251458;19;152449;-55
2023/04/04 00:48:55;;;;;;;;;;;;;;;16.15;43.51;102632.50;7254309;19;153479;-56
2023/04/04 00:51:22;;;;;;;;;;;;;;;16.14;43.62;102630.78;7255567;19;154277;-55
2023/04/04 00:53:49;;;;;;;;;;;;;;;16.14;43.71;102633.56;7252811;19;153435;-56
2023/04/04 00:56:17;;;;;;;;;;;;;;;16.14;43.38;102630.78;7251081;19;154274;-55
2023/04/04 00:58:44;;;;;;;;;;;;;;;16.13;43.81;102634.66;7254346;19;153795;-55
2023/04/04 01:01:12;;;;;;;;;;;;;;;16.12;43.61;102626.56;7255871;19;153810;-55
2023/04/04 01:03:39;;;;;;;;;;;;;;;16.11;43.49;102625.69;7262694;19;155670;-55
2023/04/04 01:06:09;;;;;;;;;;;;;;;16.13;43.65;102631.88;7253370;19;152757;-54
2023/04/04 01:08:37;;;;;;;;;;;;;;;16.13;43.49;102626.28;7255488;19;155006;-55
2023/04/04 01:11:05;;;;;;;;;;;;;;;16.13;43.44;102626.28;7254801;19;153187;-55
2023/04/04 01:13:32;;;;;;;;;;;;;;;16.11;43.48;102633.22;7255466;19;154123;-55
2023/04/04 01:16:00;;;;;;;;;;;;;;;16.11;43.61;102620.13;7251948;19;153304;-55
2023/04/04 01:18:28;;;;;;;;;;;;;;;16.10;43.45;102628.72;7254071;19;153444;-55
2023/04/04 01:21:01;;;;;;;;;;;;;;;16.08;43.52;102631.72;7254561;19;153866;-55
2023/04/04 01:23:35;;;;;;;;;;;;;;;16.09;43.79;102619.50;7253378;19;153930;-55
2023/04/04 01:26:03;;;;;;;;;;;;;;;16.11;43.75;102619.28;7259982;19;152780;-55
2023/04/04 01:28:30;;;;;;;;;;;;;;;16.09;43.56;102618.66;7253297;19;153508;-55
2023/04/04 01:30:59;;;;;;;;;;;;;;;16.07;43.33;102612.47;7254250;19;154209;-56
2023/04/04 01:33:28;;;;;;;;;;;;;;;16.07;43.60;102604.97;7254159;19;153415;-55
2023/04/04 01:36:05;;;;;;;;;;;;;;;16.05;43.49;102607.13;7254688;19;153719;-55
2023/04/04 01:38:42;;;;;;;;;;;;;;;16.05;43.55;102609.91;7255442;19;153883;-55
2023/04/04 01:41:10;;;;;;;;;;;;;;;16.04;43.30;102605.41;7255233;19;154377;-55
2023/04/04 01:43:37;;;;;;;;;;;;;;;16.03;43.73;102603.75;7251688;19;154147;-55
2023/04/04 01:46:05;;;;;;;;;;;;;;;16.07;43.58;102601.31;7248347;19;152414;-54
2023/04/04 01:48:32;;;;;;;;;;;;;;;16.04;43.41;102602.63;7260858;19;154205;-55
2023/04/04 01:51:00;;;;;;;;;;;;;;;16.02;43.31;102599.25;7255395;19;153734;-55
2023/04/04 01:53:27;;;;;;;;;;;;;;;16.01;43.54;102608.69;7252387;19;155703;-55
2023/04/04 01:55:55;;;;;;;;;;;;;;;16.03;43.56;102607.34;7249399;19;153551;-55
2023/04/04 01:58:22;;;;;;;;;;;;;;;16.03;43.51;102612.94;7253275;19;154676;-55
2023/04/04 02:00:49;;;;;;;;;;;;;;;16.00;43.48;102610.63;7250686;19;153414;-55
2023/04/04 02:03:16;;;;;;;;;;;;;;;16.02;43.77;102607.63;7251625;19;155053;-55
2023/04/04 02:05:43;;;;;;;;;;;;;;;16.01;43.61;102603.97;7250219;19;152901;-55
2023/04/04 02:08:11;;;;;;;;;;;;;;;16.01;43.41;102603.97;7261836;19;153065;-54
2023/04/04 02:10:38;;;;;;;;;;;;;;;16.00;43.50;102601.41;7252039;19;152276;-55
2023/04/04 02:13:05;;;;;;;;;;;;;;;16.00;43.39;102602.25;7256641;19;153126;-55
2023/04/04 02:15:34;;;;;;;;;;;;;;;16.02;43.77;102607.63;7251060;19;155345;-55
2023/04/04 02:18:01;;;;;;;;;;;;;;;16.00;43.68;102599.47;7253102;19;152889;-55
2023/04/04 02:20:28;;;;;;;;;;;;;;;16.03;43.45;102603.75;7257950;19;154218;-55
2023/04/04 02:22:55;;;;;;;;;;;;;;;16.03;43.51;102599.00;7258420;19;153929;-56
2023/04/04 02:25:24;;;;;;;;;;;;;;;16.02;43.68;102596.47;7256256;19;152946;-55
2023/04/04 02:27:51;;;;;;;;;;;;;;;15.99;43.65;102594.97;7258368;19;155274;-57
2023/04/04 02:30:18;;;;;;;;;;;;;;;15.99;43.57;102599.69;7269899;19;153741;-54
2023/04/04 02:32:46;;;;;;;;;;;;;;;15.99;43.52;102594.13;7256614;19;153806;-55
2023/04/04 02:35:13;;;;;;;;;;;;;;;15.98;43.65;102595.25;7258282;19;154148;-54
2023/04/04 02:37:40;;;;;;;;;;;;;;;15.94;43.36;102585.66;7257005;19;154003;-55
2023/04/04 02:40:07;;;;;;;;;;;;;;;16.00;43.30;102590.25;7259910;19;153794;-54
2023/04/04 02:42:35;;;;;;;;;;;;;;;15.98;43.57;102593.31;7256995;19;154019;-55
2023/04/04 02:45:02;;;;;;;;;;;;;;;15.96;43.50;102592.69;7256268;19;153620;-55
2023/04/04 02:47:29;;;;;;;;;;;;;;;15.94;43.45;102594.84;7255911;19;154328;-55
2023/04/04 02:49:56;;;;;;;;;;;;;;;15.94;43.29;102602.38;7258463;19;157524;-55
2023/04/04 02:52:23;;;;;;;;;;;;;;;15.94;43.26;102606.00;7268310;19;153593;-55
2023/04/04 02:54:50;;;;;;;;;;;;;;;15.95;43.29;102601.28;7258974;19;153922;-55
2023/04/04 02:57:17;;;;;;;;;;;;;;;15.95;43.61;102610.47;7256615;19;153435;-55
2023/04/04 02:59:44;;;;;;;;;;;;;;;15.93;43.65;102609.88;7258985;19;154078;-55
2023/04/04 03:02:11;;;;;;;;;;;;;;;15.91;43.62;102591.69;7256720;19;154361;-55
2023/04/04 03:04:38;;;;;;;;;;;;;;;15.92;43.62;102597.03;7255676;19;153086;-56
2023/04/04 03:07:05;;;;;;;;;;;;;;;15.92;43.48;102604.53;7259432;19;152773;-55
2023/04/04 03:09:32;;;;;;;;;;;;;;;15.94;43.28;102596.81;7262841;19;156119;-55
2023/04/04 03:12:01;;;;;;;;;;;;;;;15.93;43.24;102600.66;7258320;19;153341;-56
2023/04/04 03:14:28;;;;;;;;;;;;;;;15.93;43.37;102609.03;7267102;19;154159;-56
2023/04/04 03:16:56;;;;;;;;;;;;;;;15.93;43.73;102600.66;7256431;19;152654;-56
2023/04/04 03:19:23;;;;;;;;;;;;;;;15.91;43.58;102609.25;7256069;19;155790;-56
2023/04/04 03:21:50;;;;;;;;;;;;;;;15.94;43.20;102596.81;7257800;19;154996;-56
2023/04/04 03:24:17;;;;;;;;;;;;;;;15.89;43.51;102610.59;7257631;19;153813;-56
2023/04/04 03:26:44;;;;;;;;;;;;;;;15.92;43.53;102605.41;7260961;19;154021;-56
2023/04/04 03:29:11;;;;;;;;;;;;;;;15.88;43.46;102606.09;7252931;19;155304;-55
2023/04/04 03:31:38;;;;;;;;;;;;;;;15.87;43.43;102610.81;7259411;19;154550;-56
2023/04/04 03:34:05;;;;;;;;;;;;;;;15.86;43.46;102608.25;7255411;19;152756;-55
2023/04/04 03:36:32;;;;;;;;;;;;;;;15.89;43.39;102614.25;7263064;19;154810;-55
2023/04/04 03:38:59;;;;;;;;;;;;;;;15.88;43.40;102618.09;7258984;19;153204;-56
2023/04/04 03:41:26;;;;;;;;;;;;;;;15.89;43.33;102618.97;7261455;19;154444;-56
2023/04/04 03:43:53;;;;;;;;;;;;;;;15.86;43.62;102611.91;7257990;19;152816;-55
2023/04/04 03:46:20;;;;;;;;;;;;;;;15.85;43.29;102618.56;7258035;19;154084;-56
2023/04/04 03:48:47;;;;;;;;;;;;;;;15.87;43.38;102616.41;7254923;19;156020;-56
2023/04/04 03:51:14;;;;;;;;;;;;;;;15.86;43.27;102611.91;7261706;19;153688;-56
2023/04/04 03:53:41;;;;;;;;;;;;;;;15.86;43.39;102609.13;7257957;19;153441;-56
2023/04/04 03:56:08;;;;;;;;;;;;;;;15.87;43.33;102609.97;7253568;19;155627;-56
2023/04/04 03:58:35;;;;;;;;;;;;;;;15.85;43.19;102606.59;7267324;19;153619;-56
2023/04/04 04:01:02;;;;;;;;;;;;;;;15.84;43.68;102618.81;7254084;19;154230;-57
2023/04/04 04:03:30;;;;;;;;;;;;;;;15.83;43.36;102608.75;7255814;19;153601;-55
2023/04/04 04:05:58;;;;;;;;;;;;;;;15.82;43.64;102610.69;7252823;19;153593;-55
2023/04/04 04:08:25;;;;;;;;;;;;;;;15.81;43.37;102608.13;7255681;19;154536;-56
2023/04/04 04:10:52;;;;;;;;;;;;;;;15.80;43.63;102615.66;7256574;19;154051;-56
2023/04/04 04:13:18;;;;;;;;;;;;;;;15.79;43.49;102619.53;7258859;19;153755;-57
2023/04/04 04:15:46;;;;;;;;;;;;;;;15.80;43.40;102625.94;7251342;19;154075;-56
2023/04/04 04:18:13;;;;;;;;;;;;;;;15.79;43.71;102622.31;7264177;19;154201;-56
2023/04/04 04:20:39;;;;;;;;;;;;;;;15.77;43.71;102615.25;7254960;19;152275;-56
2023/04/04 04:23:07;;;;;;;;;;;;;;;15.80;43.18;102620.38;7256329;19;153109;-56
2023/04/04 04:25:34;;;;;;;;;;;;;;;15.78;43.40;102617.81;7252305;19;154445;-56
2023/04/04 04:28:01;;;;;;;;;;;;;;;15.79;43.48;102615.88;7255772;19;154142;-56
2023/04/04 04:30:27;;;;;;;;;;;;;;;15.77;43.37;102616.09;7254581;19;153091;-56
2023/04/04 04:32:55;;;;;;;;;;;;;;;15.75;43.69;102615.50;7255648;19;153446;-56
2023/04/04 04:35:22;;;;;;;;;;;;;;;15.77;43.25;102609.69;7250973;19;153417;-56
2023/04/04 04:37:48;;;;;;;;;;;;;;;15.76;43.66;102606.03;7254108;19;153143;-57
2023/04/04 04:40:15;;;;;;;;;;;;;;;15.73;43.46;102602.88;7262057;19;153659;-55
2023/04/04 04:42:44;;;;;;;;;;;;;;;15.74;43.62;102602.66;7258499;19;154495;-56
2023/04/04 04:45:12;;;;;;;;;;;;;;;15.75;43.28;102598.78;7253102;19;153812;-55
2023/04/04 04:47:38;;;;;;;;;;;;;;;15.76;43.21;102605.22;7253665;19;153785;-55
2023/04/04 04:50:07;;;;;;;;;;;;;;;15.78;43.10;102603.03;7253919;19;153434;-55
2023/04/04 04:52:35;;;;;;;;;;;;;;;15.75;43.29;102593.22;7260316;19;152869;-55
2023/04/04 04:55:03;;;;;;;;;;;;;;;15.72;43.62;102599.25;7253737;19;154316;-55
2023/04/04 04:57:30;;;;;;;;;;;;;;;15.72;43.39;102592.81;7255335;19;152504;-55
2023/04/04 04:59:57;;;;;;;;;;;;;;;15.75;43.17;102595.16;7256008;19;152964;-55
2023/04/04 05:02:24;;;;;;;;;;;;;;;15.72;43.29;102590.03;7263256;19;153596;-55
2023/04/04 05:04:51;;;;;;;;;;;;;;;15.72;43.46;102587.25;7252425;19;152969;-55
2023/04/04 05:07:18;;;;;;;;;;;;;;;15.69;43.70;102596.94;7255351;19;153592;-55
2023/04/04 05:09:48;;;;;;;;;;;;;;;15.71;43.61;102602.28;7254145;19;153159;-55
2023/04/04 05:12:14;;;;;;;;;;;;;;;15.71;43.16;102594.78;7257237;19;154215;-55
2023/04/04 05:14:41;;;;;;;;;;;;;;;15.69;43.46;102596.94;7253568;19;153802;-55
2023/04/04 05:17:08;;;;;;;;;;;;;;;15.68;43.39;102605.53;7251235;19;154285;-55
2023/04/04 05:19:35;;;;;;;;;;;;;;;15.69;43.55;102607.22;7252762;19;152657;-55
2023/04/04 05:22:02;;;;;;;;;;;;;;;15.66;43.59;102602.13;7257915;19;155211;-54
2023/04/04 05:24:29;;;;;;;;;;;;;;;15.67;43.24;102604.66;7259431;19;154185;-55
2023/04/04 05:26:56;;;;;;;;;;;;;;;15.67;43.66;102601.06;7255609;19;154314;-55
2023/04/04 05:29:22;;;;;;;;;;;;;;;15.68;43.19;102606.38;7257347;19;152242;-55
2023/04/04 05:31:49;;;;;;;;;;;;;;;15.67;43.34;102609.41;7252456;19;152956;-55
2023/04/04 05:34:16;;;;;;;;;;;;;;;15.67;43.57;102610.25;7250276;19;155119;-55
2023/04/04 05:36:43;;;;;;;;;;;;;;;15.68;43.46;102625.03;7253282;19;152804;-56
2023/04/04 05:39:10;;;;;;;;;;;;;;;15.67;43.29;102620.56;7253578;19;154843;-55
2023/04/04 05:41:37;;;;;;;;;;;;;;;15.65;43.60;102618.00;7251896;19;153996;-55
2023/04/04 05:44:04;;;;;;;;;;;;;;;15.64;43.45;102619.06;7252860;19;153444;-55
2023/04/04 05:46:31;;;;;;;;;;;;;;;15.64;43.55;102629.38;7257174;19;153457;-55
2023/04/04 05:48:58;;;;;;;;;;;;;;;15.64;43.16;102621.00;7255683;19;153304;-55
2023/04/04 05:51:25;;;;;;;;;;;;;;;15.64;43.36;102618.22;7253492;19;154014;-55
2023/04/04 05:53:55;;;;;;;;;;;;;;;15.62;43.46;102623.19;7251116;19;154386;-55
2023/04/04 05:56:23;;;;;;;;;;;;;;;15.62;43.38;102615.69;7253507;19;153430;-55
2023/04/04 05:58:50;;;;;;;;;;;;;;;15.59;43.56;102632.84;7252827;19;152764;-55
2023/04/04 06:01:18;;;;;;;;;;;;;;;15.62;43.27;102628.75;7251564;19;152954;-55
2023/04/04 06:03:45;;;;;;;;;;;;;;;15.60;43.58;102634.56;7253928;19;152071;-55
2023/04/04 06:06:12;;;;;;;;;;;;;;;15.60;43.48;102631.78;7249423;19;153726;-55
2023/04/04 06:08:39;;;;;;;;;;;;;;;15.60;43.50;102630.91;7259862;19;152076;-55
2023/04/04 06:11:18;;;;;;;;;;;;;;;15.61;43.28;102627.06;7254279;19;153521;-55
2023/04/04 06:13:45;;;;;;;;;;;;;;;15.58;43.33;102631.16;7251806;19;155851;-55
2023/04/04 06:16:12;;;;;;;;;;;;;;;15.58;43.18;102628.34;7248186;19;153138;-55
2023/04/04 06:18:39;;;;;;;;;;;;;;;15.57;43.41;102623.91;7249566;19;154699;-55
2023/04/04 06:21:06;;;;;;;;;;;;;;;15.58;43.27;102631.16;7250897;19;153892;-55
2023/04/04 06:23:33;;;;;;;;;;;;;;;15.61;43.39;102632.63;7250744;19;153973;-54
2023/04/04 06:26:00;;;;;;;;;;;;;;;15.56;43.27;102641.69;7248358;19;153954;-55
2023/04/04 06:28:27;;;;;;;;;;;;;;;15.55;43.12;102637.19;7261152;19;153514;-55
2023/04/04 06:30:58;;;;;;;;;;;;;;;15.58;43.53;102645.06;7255172;19;153126;-55
2023/04/04 06:33:25;;;;;;;;;;;;;;;15.56;43.34;102650.03;7249608;19;154959;-55
2023/04/04 06:35:55;;;;;;;;;;;;;;;15.56;43.25;102659.25;7249348;19;153480;-55
2023/04/04 06:38:21;;;;;;;;;;;;;;;15.55;43.39;102649.19;7249651;19;153805;-55
2023/04/04 06:40:48;;;;;;;;;;;;;;;15.56;43.14;102648.13;7251639;19;155845;-55
2023/04/04 06:43:15;;;;;;;;;;;;;;;15.54;43.16;102655.84;7254794;19;152773;-55
2023/04/04 06:45:42;;;;;;;;;;;;;;;15.53;43.19;102656.94;7251535;19;153629;-55
2023/04/04 06:48:09;;;;;;;;;;;;;;;15.55;43.41;102656.69;7246417;19;156200;-56
2023/04/04 06:50:36;;;;;;;;;;;;;;;15.55;43.31;102651.97;7259118;19;154103;-55
2023/04/04 06:53:05;;;;;;;;;;;;;;;15.52;43.50;102666.38;7251187;19;153478;-55
2023/04/04 06:55:32;;;;;;;;;;;;;;;15.53;43.40;102659.72;7249391;19;153468;-55
2023/04/04 06:57:59;;;;;;;;;;;;;;;15.50;43.19;102662.06;7248994;19;153947;-55
2023/04/04 07:00:26;;;;;;;;;;;;;;;15.55;43.16;102673.41;7251464;19;154217;-55
2023/04/04 07:02:57;;;;;;;;;;;;;;;15.52;43.60;102668.31;7249317;19;153195;-55
2023/04/04 07:05:25;;;;;;;;;;;;;;;15.50;43.45;102659.28;7256516;19;153373;-54
2023/04/04 07:07:53;;;;;;;;;;;;;;;15.51;43.54;102673.03;7254720;19;153963;-55
2023/04/04 07:10:20;;;;;;;;;;;;;;;15.51;43.11;102661.88;7257424;19;153238;-54
2023/04/04 07:12:47;;;;;;;;;;;;;;;15.51;43.38;102663.81;7265041;19;154121;-54
2023/04/04 07:15:14;;;;;;;;;;;;;;;15.53;43.41;102670.88;7256582;19;153355;-55
2023/04/04 07:17:41;;;;;;;;;;;;;;;15.49;43.28;102668.75;7254814;19;153872;-54
2023/04/04 07:20:09;;;;;;;;;;;;;;;15.51;43.53;102661.88;7257251;19;153898;-55
2023/04/04 07:22:37;;;;;;;;;;;;;;;15.52;43.59;102662.75;7261432;19;153980;-55
2023/04/04 07:25:04;;;;;;;;;;;;;;;15.53;43.20;102661.66;7256056;19;154407;-55
2023/04/04 07:27:31;;;;;;;;;;;;;;;15.51;43.21;102661.88;7254320;19;153991;-55
2023/04/04 07:29:58;;;;;;;;;;;;;;;15.51;43.43;102658.25;7258653;19;152305;-55
2023/04/04 07:32:25;;;;;;;;;;;;;;;15.51;43.31;102655.47;7259316;19;153873;-55
2023/04/04 07:34:53;;;;;;;;;;;;;;;15.52;43.30;102652.47;7261048;19;153853;-55
2023/04/04 07:37:20;;;;;;;;;;;;;;;15.53;43.32;102656.94;7255986;19;153303;-55
2023/04/04 07:39:50;;;;;;;;;;;;;;;15.52;43.22;102646.88;7257176;19;154340;-55
2023/04/04 07:42:22;;;;;;;;;;;;;;;15.51;43.14;102645.19;7257454;19;155049;-55
2023/04/04 07:44:49;;;;;;;;;;;;;;;15.53;43.19;102640.22;7258881;19;153477;-55
2023/04/04 07:47:16;;;;;;;;;;;;;;;15.51;43.54;102650.75;7255005;19;155056;-55
2023/04/04 07:49:43;;;;;;;;;;;;;;;15.52;43.27;102637.66;7255975;19;153211;-55
2023/04/04 07:52:11;;;;;;;;;;;;;;;15.53;43.18;102631.03;7258626;19;154025;-55
2023/04/04 07:54:40;;;;;;;;;;;;;;;15.52;43.50;102623.75;7254110;19;154667;-55
2023/04/04 07:57:08;;;;;;;;;;;;;;;15.51;43.27;102622.91;7261650;19;153517;-55
2023/04/04 07:59:36;;;;;;;;;;;;;;;15.52;43.04;102619.03;7254923;19;153309;-56
2023/04/04 08:02:02;;;;;;;;;;;;;;;15.53;43.16;102623.53;7257862;19;153504;-56
2023/04/04 08:04:30;;;;;;;;;;;;;;;15.51;43.19;102619.25;7252135;19;153449;-56
2023/04/04 08:06:57;;;;;;;;;;;;;;;15.50;43.38;102618.41;7253118;19;155333;-55
2023/04/04 08:09:24;;;;;;;;;;;;;;;15.50;43.29;102618.41;7255241;19;153053;-55
2023/04/04 08:11:51;;;;;;;;;;;;;;;15.51;43.12;102616.47;7260157;19;153650;-56
2023/04/04 08:14:18;;;;;;;;;;;;;;;15.52;43.41;102615.38;7255071;19;155217;-56
2023/04/04 08:16:45;;;;;;;;;;;;;;;15.52;43.01;102619.03;7259652;19;153751;-55
2023/04/04 08:19:12;;;;;;;;;;;;;;;15.53;43.43;102617.94;7252496;19;153752;-56
2023/04/04 08:21:39;;;;;;;;;;;;;;;15.51;43.30;102617.31;7258062;19;153564;-56
2023/04/04 08:24:06;;;;;;;;;;;;;;;15.51;43.08;102603.41;7255093;19;154641;-55
2023/04/04 08:26:33;;;;;;;;;;;;;;;15.51;43.01;102608.09;7250844;19;152709;-56
2023/04/04 08:29:00;;;;;;;;;;;;;;;15.48;43.21;102612.19;7250742;19;153657;-56
2023/04/04 08:31:28;;;;;;;;;;;;;;;15.52;43.33;102612.59;7255559;19;154064;-56
2023/04/04 08:33:55;;;;;;;;;;;;;;;15.52;43.14;102619.03;7254865;19;154776;-55
2023/04/04 08:36:23;;;;;;;;;;;;;;;15.53;43.07;102612.38;7252331;19;153509;-56
2023/04/04 08:38:50;;;;;;;;;;;;;;;15.54;43.10;102611.28;7260735;19;154022;-56
2023/04/04 08:41:17;;;;;;;;;;;;;;;15.53;43.11;102609.59;7256931;19;152908;-56
2023/04/04 08:43:46;;;;;;;;;;;;;;;15.53;43.26;102608.75;7252006;19;153887;-56
2023/04/04 08:46:14;;;;;;;;;;;;;;;15.50;42.96;102614.72;7249815;19;153733;-56
2023/04/04 08:48:42;;;;;;;;;;;;;;;15.53;43.13;102611.53;7255644;19;153148;-56
2023/04/04 08:51:11;;;;;;;;;;;;;;;15.53;43.27;102604.03;7256953;19;153366;-56
2023/04/04 08:53:38;;;;;;;;;;;;;;;15.52;43.14;102607.03;7256235;19;154110;-55
2023/04/04 08:56:05;;;;;;;;;;;;;;;15.52;43.06;102601.47;7253961;19;153899;-55
2023/04/04 08:58:32;;;;;;;;;;;;;;;15.53;43.42;102600.38;7255415;19;153159;-55
2023/04/04 09:01:00;;;;;;;;;;;;;;;15.52;43.35;102607.03;7263534;19;153608;-56
2023/04/04 09:03:31;;;;;;;;;;;;;;;15.54;43.10;102605.69;7255242;19;152801;-56
2023/04/04 09:06:00;;;;;;;;;;;;;;;15.52;43.17;102610.66;7251057;19;155964;-56
2023/04/04 09:08:28;;;;;;;;;;;;;;;15.52;43.17;102607.88;7254805;19;153224;-56
2023/04/04 09:10:55;;;;;;;;;;;;;;;15.56;43.29;102614.69;7256154;19;152672;-56
2023/04/04 09:13:22;;;;;;;;;;;;;;;15.57;43.49;102619.19;7256604;19;154393;-56
2023/04/04 09:15:50;;;;;;;;;;;;;;;15.57;43.18;102616.41;7252918;19;153440;-55
2023/04/04 09:18:17;;;;;;;;;;;;;;;15.57;43.39;102605.25;7250503;19;154598;-56
2023/04/04 09:20:46;;;;;;;;;;;;;;;15.60;43.42;102605.84;7255575;19;154591;-55
2023/04/04 09:23:17;;;;;;;;;;;;;;;15.59;43.07;102607.78;7260913;19;152437;-56
2023/04/04 09:25:54;;;;;;;;;;;;;;;15.60;43.42;102614.22;7250849;19;153974;-56
2023/04/04 09:28:29;;;;;;;;;;;;;;;15.65;43.10;102604.06;7251263;19;156766;-56
2023/04/04 09:30:58;;;;;;;;;;;;;;;15.64;43.44;102601.50;7257405;19;153119;-56
2023/04/04 09:33:25;;;;;;;;;;;;;;;15.67;43.00;102606.63;7254313;19;154057;-56
2023/04/04 09:35:56;;;;;;;;;;;;;;;15.67;43.21;102609.41;7252830;19;152933;-56
2023/04/04 09:38:24;;;;;;;;;;;;;;;15.69;43.40;102601.66;7250986;19;153038;-56
2023/04/04 09:40:51;;;;;;;;;;;;;;;15.70;42.98;102603.38;7253670;19;154141;-56
2023/04/04 09:43:20;;;;;;;;;;;;;;;15.68;43.15;102600.81;7256451;19;153485;-56
2023/04/04 09:45:49;;;;;;;;;;;;;;;15.68;43.40;102594.38;7261081;19;153555;-54
2023/04/04 09:48:26;;;;;;;;;;;;;;;15.69;43.26;102593.28;7250549;19;153829;-55
2023/04/04 09:50:53;;;;;;;;;;;;;;;15.70;43.17;102587.50;7254277;19;153692;-54
2023/04/04 09:53:20;;;;;;;;;;;;;;;15.70;43.17;102593.06;7250754;19;154298;-55
2023/04/04 09:55:51;;;;;;;;;;;;;;;15.71;43.40;102593.94;7253609;19;152931;-53
2023/04/04 09:58:25;;;;;;;;;;;;;;;15.73;43.04;102580.59;7253500;19;153347;-55
2023/04/04 10:00:55;;;;;;;;;;;;;;;15.74;43.18;102576.72;7253589;19;154183;-55
2023/04/04 10:03:22;;;;;;;;;;;;;;;15.76;43.42;102566.22;7252121;19;154352;-55
2023/04/04 10:05:59;;;;;;;;;;;;;;;15.78;43.45;102573.22;7249378;19;154717;-55
2023/04/04 10:08:27;;;;;;;;;;;;;;;15.78;43.41;102569.59;7254500;19;153624;-55
2023/04/04 10:10:57;;;;;;;;;;;;;;;15.83;42.91;102570.59;7251918;19;153632;-55
2023/04/04 10:13:42;;;;;;;;;;;;;;;15.83;42.99;102572.53;7255533;19;154838;-55
2023/04/04 10:16:10;;;;;;;;;;;;;;;15.84;42.95;102568.66;7248127;19;153343;-55
2023/04/04 10:18:38;;;;;;;;;;;;;;;15.86;42.94;102585.97;7250172;19;153069;-55
2023/04/04 10:21:07;;;;;;;;;;;;;;;15.86;43.02;102569.25;7254735;19;154993;-55
2023/04/04 10:23:37;;;;;;;;;;;;;;;15.88;43.32;102576.31;7253468;19;152959;-55
2023/04/04 10:26:04;;;;;;;;;;;;;;;15.88;42.95;102565.16;7252841;19;154791;-55
2023/04/04 10:28:33;;;;;;;;;;;;;;;15.90;43.33;102570.47;7256978;19;153974;-55
2023/04/04 10:31:00;;;;;;;;;;;;;;;15.90;43.03;102570.47;7250944;19;152971;-55
2023/04/04 10:33:36;;;;;;;;;;;;;;;15.92;42.69;102563.59;7251099;19;155684;-55
2023/04/04 10:36:05;;;;;;;;;;;;;;;15.91;43.11;102564.66;7248552;19;153895;-55
2023/04/04 10:38:39;;;;;;;;;;;;;;;15.94;43.06;102560.56;7255116;19;154125;-57
2023/04/04 10:41:06;;;;;;;;;;;;;;;15.95;43.04;102551.09;7258288;19;153954;-55
2023/04/04 10:43:34;;;;;;;;;;;;;;;15.99;42.81;102552.31;7256525;19;153585;-55
2023/04/04 10:46:07;;;;;;;;;;;;;;;16.00;43.00;102545.66;7254955;19;154299;-55
2023/04/04 10:48:35;;;;;;;;;;;;;;;16.00;43.17;102552.09;7257060;19;153712;-55
2023/04/04 10:51:03;;;;;;;;;;;;;;;16.06;43.01;102547.50;7270011;19;153785;-55
2023/04/04 10:53:31;;;;;;;;;;;;;;;16.09;42.99;102535.84;7261170;19;154298;-55
2023/04/04 10:55:58;;;;;;;;;;;;;;;16.10;42.85;102537.56;7256551;19;153717;-55
2023/04/04 10:58:27;;;;;;;;;;;;;;;16.14;42.79;102535.13;7255992;19;153476;-55
2023/04/04 11:00:54;;;;;;;;;;;;;;;16.16;42.97;102528.25;7256954;19;153526;-55
2023/04/04 11:03:23;;;;;;;;;;;;;;;16.18;42.91;102523.25;7258211;19;153143;-55
2023/04/04 11:05:59;;;;;;;;;;;;;;;16.21;42.72;102528.38;7254152;19;152644;-55
2023/04/04 11:08:27;;;;;;;;;;;;;;;16.24;42.45;102527.88;7256102;19;153450;-55
2023/04/04 11:10:54;;;;;;;;;;;;;;;16.26;42.48;102524.88;7259119;19;152715;-55
2023/04/04 11:13:28;;;;;;;;;;;;;;;16.28;42.70;102529.09;7266612;19;153775;-55
2023/04/04 11:15:56;;;;;;;;;;;;;;;16.31;42.38;102528.59;7254103;19;152329;-55
2023/04/04 11:18:33;;;;;;;;;;;;;;;16.34;42.71;102530.94;7255353;19;153292;-55
2023/04/04 11:21:01;;;;;;;;;;;;;;;16.37;42.55;102529.59;7256036;19;153903;-55
2023/04/04 11:23:38;;;;;;;;;;;;;;;16.38;42.33;102536.88;7263567;19;153834;-57
2023/04/04 11:26:06;;;;;;;;;;;;;;;16.41;42.63;102537.22;7255437;19;153956;-55
2023/04/04 11:28:33;;;;;;;;;;;;;;;16.43;42.54;102537.84;7253995;19;155950;-55
2023/04/04 11:31:09;;;;;;;;;;;;;;;16.45;42.64;102518.91;7256049;19;153125;-55
2023/04/04 11:33:54;;;;;;;;;;;;;;;16.48;42.52;102531.53;7258174;19;155176;-55
2023/04/04 11:36:30;;;;;;;;;;;;;;;16.53;42.18;102530.81;7262114;19;157040;-55
2023/04/04 11:38:58;;;;;;;;;;;;;;;16.52;42.32;102523.53;7256562;19;152738;-55
2023/04/04 11:41:35;;;;;;;;;;;;;;;16.55;42.31;102525.81;7256551;19;153474;-55
2023/04/04 11:44:07;;;;;;;;;;;;;;;16.58;42.49;102517.03;7261508;19;153299;-55
2023/04/04 11:46:34;;;;;;;;;;;;;;;16.59;42.37;102516.75;7251573;19;153513;-55
2023/04/04 11:49:02;;;;;;;;;;;;;;;16.62;42.21;102518.22;7254521;19;154667;-55
2023/04/04 11:51:29;;;;;;;;;;;;;;;16.64;42.24;102522.47;7260226;19;154021;-55
2023/04/04 11:53:56;;;;;;;;;;;;;;;16.67;42.47;102526.72;7257299;19;153898;-55
2023/04/04 11:56:23;;;;;;;;;;;;;;;16.68;42.20;102531.19;7251977;19;153805;-55
2023/04/04 11:58:50;;;;;;;;;;;;;;;16.68;42.34;102529.25;7263323;19;153152;-56
2023/04/04 12:01:34;;;;;;;;;;;;;;;16.69;42.39;102530.09;7255499;19;153584;-55
2023/04/04 12:04:03;;;;;;;;;;;;;;;16.76;42.14;102523.28;7254519;19;153345;-55
2023/04/04 12:06:35;;;;;;;;;;;;;;;16.77;42.28;102530.56;7255049;19;153581;-55
2023/04/04 12:09:03;;;;;;;;;;;;;;;16.79;42.39;102519.19;7254536;19;153394;-55
2023/04/04 12:11:32;;;;;;;;;;;;;;;16.80;42.19;102521.72;7257045;19;152292;-55
2023/04/04 12:13:59;;;;;;;;;;;;;;;16.81;41.86;102516.97;7256240;19;153523;-55
2023/04/04 12:16:27;;;;;;;;;;;;;;;16.82;41.82;102516.75;7251916;19;154102;-55
2023/04/04 12:18:56;;;;;;;;;;;;;;;16.82;42.09;102497.19;7254906;19;153845;-57
2023/04/04 12:21:23;;;;;;;;;;;;;;;16.84;41.91;102496.97;7265732;19;155638;-55
2023/04/04 12:23:50;;;;;;;;;;;;;;;16.86;41.83;102494.75;7254086;19;152705;-56
2023/04/04 12:26:17;;;;;;;;;;;;;;;16.86;42.00;102492.81;7256447;19;153298;-57
2023/04/04 12:28:44;;;;;;;;;;;;;;;16.89;41.80;102492.34;7254602;19;154184;-56
2023/04/04 12:31:12;;;;;;;;;;;;;;;16.88;41.95;102489.78;7253505;19;152521;-56
2023/04/04 12:33:40;;;;;;;;;;;;;;;16.91;41.83;102483.72;7255491;19;153719;-56